Terminal Aerodrome Forecast
Issued by NWS Albuquerque, NM

Home | Current Version | Previous Version | Text Only | Print | Product List | Glossary On
Versions: 1 2 3 4 5 6 7 8 9 10 11 12 13 14 15
000
FTUS45 KABQ 200500
TAFABQ
TAF
KABQ 200528Z 2006/2106 20009KT P6SM SCT090 BKN150
     FM201000 VRB05KT P6SM BKN060 BKN150
     FM201600 28006KT P6SM SCT070 SCT150
     FM202000 29008G15KT P6SM SCT070 SCT150
     FM210100 30008KT P6SM FEW080=

USA.gov is the U.S. government's official web portal to all federal, state and local government web resources and services.